Time;durP1;ratioP1;P1;durP2;ratioP2;P2;SDS_P1;SDS_P2;PMS_P1;PMS_P2;Temp;Humidity;BMP_temperature;BMP_pressure;BME280_temperature;BME280_humidity;BME280_pressure;Samples;Min_cycle;Max_cycle;Signal;HPM_P1;HPM_P2
2023/07/06 00:01:00;;;;;;;14.73;13.40;;;14.90;1.00;;;;;;5080895;28;20515;-46
2023/07/06 00:03:26;;;;;;;14.10;13.20;;;14.80;1.00;;;;;;5090224;28;20449;-45
2023/07/06 00:05:52;;;;;;;13.83;13.03;;;14.80;1.00;;;;;;5089930;28;20458;-46
2023/07/06 00:08:18;;;;;;;13.87;12.87;;;14.70;1.00;;;;;;5090189;28;20501;-43
2023/07/06 00:10:45;;;;;;;13.40;12.60;;;14.70;1.00;;;;;;5090068;28;20267;-44
2023/07/06 00:13:11;;;;;;;13.70;12.93;;;14.60;1.00;;;;;;5089886;28;20461;-44
2023/07/06 00:15:39;;;;;;;14.00;13.10;;;14.60;60.00;;;;;;5090001;28;20726;-46
2023/07/06 00:18:05;;;;;;;14.17;13.03;;;14.60;31.00;;;;;;5090029;28;20431;-44
2023/07/06 00:20:32;;;;;;;14.70;13.73;;;14.50;99.90;;;;;;5089926;28;20466;-47
2023/07/06 00:22:58;;;;;;;13.60;12.80;;;14.50;99.90;;;;;;5089964;28;20490;-43
2023/07/06 00:25:25;;;;;;;14.37;13.57;;;14.50;99.90;;;;;;5089723;28;20454;-50
2023/07/06 00:27:54;;;;;;;13.40;12.60;;;14.40;99.90;;;;;;5089853;28;20538;-42
2023/07/06 00:30:30;;;;;;;14.60;13.60;;;14.40;99.90;;;;;;5089789;28;20414;-43
2023/07/06 00:32:59;;;;;;;14.70;13.70;;;14.40;1.00;;;;;;5089578;28;20421;-44
2023/07/06 00:35:25;;;;;;;14.17;13.27;;;14.30;1.00;;;;;;5089552;28;20429;-42
2023/07/06 00:37:51;;;;;;;14.23;13.33;;;14.30;1.00;;;;;;5089378;28;20871;-43
2023/07/06 00:40:17;;;;;;;14.23;13.43;;;14.30;99.90;;;;;;5089472;28;20258;-45
2023/07/06 00:42:44;;;;;;;14.13;13.33;;;14.30;14.30;;;;;;5089450;28;20501;-44
2023/07/06 00:45:10;;;;;;;13.87;13.07;;;14.40;1.00;;;;;;5089288;28;20411;-44
2023/07/06 00:47:44;;;;;;;13.40;12.60;;;14.40;1.00;;;;;;5075677;28;20476;-44
2023/07/06 00:50:19;;;;;;;13.50;12.70;;;14.30;1.00;;;;;;5089311;28;20409;-44
2023/07/06 00:52:51;;;;;;;14.00;13.20;;;14.30;99.90;;;;;;5087978;28;20967;-44
2023/07/06 00:55:19;;;;;;;14.37;13.47;;;14.30;1.00;;;;;;5081645;28;20414;-44
2023/07/06 00:57:51;;;;;;;14.33;13.47;;;14.30;1.00;;;;;;5088974;28;20402;-44
2023/07/06 01:00:21;;;;;;;14.03;13.23;;;14.30;1.00;;;;;;5079627;28;20914;-44
2023/07/06 01:02:53;;;;;;;14.00;13.20;;;14.20;1.00;;;;;;5089077;28;20776;-42
2023/07/06 01:05:23;;;;;;;14.30;13.40;;;14.20;18.30;;;;;;5089126;28;20987;-49
2023/07/06 01:07:51;;;;;;;14.10;13.20;;;14.20;99.90;;;;;;5088987;28;20415;-44
2023/07/06 01:10:17;;;;;;;13.60;12.80;;;14.20;99.90;;;;;;5088913;28;20414;-43
2023/07/06 01:12:43;;;;;;;13.60;12.90;;;14.20;99.90;;;;;;5089078;28;20411;-44
2023/07/06 01:15:09;;;;;;;14.43;13.53;;;14.20;1.00;;;;;;5088645;28;20418;-44
2023/07/06 01:18:07;;;;;;;13.67;12.80;;;14.20;1.00;;;;;;5088937;28;20666;-45
2023/07/06 01:21:09;;;;;;;13.70;12.97;;;14.20;99.90;;;;;;5088782;28;20460;-45
2023/07/06 01:24:02;;;;;;;13.97;13.07;;;14.20;1.00;;;;;;5088166;28;20836;-42
2023/07/06 01:26:40;;;;;;;14.20;13.40;;;14.10;1.00;;;;;;5088568;28;20458;-47
2023/07/06 01:29:24;;;;;;;14.40;13.50;;;14.10;99.90;;;;;;5089070;28;20928;-48
2023/07/06 01:31:54;;;;;;;14.30;13.30;;;14.10;99.90;;;;;;5088485;28;20468;-43
2023/07/06 01:34:24;;;;;;;14.20;13.40;;;14.10;99.90;;;;;;5089025;28;20410;-48
2023/07/06 01:36:56;;;;;;;14.20;13.37;;;14.10;99.90;;;;;;5088722;28;20402;-44
2023/07/06 01:39:23;;;;;;;14.17;13.27;;;14.10;99.90;;;;;;5088466;28;20905;-46
2023/07/06 01:42:12;;;;;;;14.83;13.80;;;14.10;99.90;;;;;;5088582;28;20516;-46
2023/07/06 01:44:41;;;;;;;14.30;13.40;;;14.10;99.90;;;;;;5088354;28;20415;-48
2023/07/06 01:47:09;;;;;;;14.57;13.57;;;14.00;99.90;;;;;;5074764;28;20500;-43
2023/07/06 01:49:36;;;;;;;14.13;13.30;;;13.90;99.90;;;;;;5088085;28;20440;-42
2023/07/06 01:52:14;;;;;;;14.43;13.57;;;13.90;99.90;;;;;;5088469;28;20414;-47
2023/07/06 01:54:49;;;;;;;16.43;14.70;;;13.80;99.90;;;;;;5079132;28;20849;-42
2023/07/06 01:57:24;;;;;;;14.20;13.50;;;13.80;1.00;;;;;;5088283;28;20441;-46
2023/07/06 01:59:53;;;;;;;14.27;13.37;;;13.80;99.90;;;;;;5082545;28;20448;-44
2023/07/06 02:02:20;;;;;;;13.53;12.83;;;13.80;99.90;;;;;;5085702;28;20469;-45
2023/07/06 02:04:47;;;;;;;13.80;13.00;;;13.70;99.90;;;;;;5088393;28;20418;-45
2023/07/06 02:07:16;;;;;;;14.20;13.30;;;13.70;99.90;;;;;;5088332;28;20447;-46
2023/07/06 02:09:45;;;;;;;14.93;13.70;;;13.70;99.90;;;;;;5088731;28;20414;-45
2023/07/06 02:12:12;;;;;;;14.80;13.90;;;13.70;99.90;;;;;;5088314;28;20422;-46
2023/07/06 02:14:39;;;;;;;14.80;13.80;;;13.70;99.90;;;;;;5088344;28;20505;-43
2023/07/06 02:17:06;;;;;;;13.70;13.00;;;13.70;99.90;;;;;;5088335;28;20422;-46
2023/07/06 02:19:35;;;;;;;14.10;13.17;;;13.70;99.90;;;;;;5088531;28;20430;-44
2023/07/06 02:22:03;;;;;;;14.00;13.20;;;13.70;99.90;;;;;;5088530;28;20800;-46
2023/07/06 02:24:32;;;;;;;14.67;13.77;;;13.70;99.90;;;;;;5088151;28;20466;-46
2023/07/06 02:26:57;;;;;;;14.30;13.50;;;13.70;99.90;;;;;;5088079;28;20839;-47
2023/07/06 02:29:23;;;;;;;14.50;13.70;;;13.70;99.90;;;;;;5088225;28;20438;-48
2023/07/06 02:31:49;;;;;;;15.20;14.00;;;13.70;99.90;;;;;;5087865;28;20552;-43
2023/07/06 02:34:24;;;;;;;14.30;13.47;;;13.60;99.90;;;;;;5088138;28;20180;-45
2023/07/06 02:36:51;;;;;;;14.40;13.60;;;13.60;99.90;;;;;;5091264;28;20900;-44
2023/07/06 02:39:16;;;;;;;14.70;13.70;;;13.50;1.00;;;;;;5091977;28;20422;-46
2023/07/06 02:41:42;;;;;;;14.13;13.33;;;13.50;1.00;;;;;;5084199;28;20465;-46
2023/07/06 02:44:07;;;;;;;15.23;14.33;;;13.50;1.00;;;;;;5084973;28;20180;-47
2023/07/06 02:46:33;;;;;;;14.40;13.60;;;13.50;1.00;;;;;;5083727;28;20178;-47
2023/07/06 02:48:59;;;;;;;14.43;13.63;;;13.40;1.00;;;;;;5085815;28;20207;-47
2023/07/06 02:51:24;;;;;;;14.90;14.00;;;13.40;1.00;;;;;;5091867;28;20250;-43
2023/07/06 02:53:50;;;;;;;14.30;13.30;;;13.40;99.90;;;;;;5082213;28;20195;-45
2023/07/06 02:56:15;;;;;;;14.67;13.77;;;13.40;99.90;;;;;;5091683;28;20644;-47
2023/07/06 02:58:42;;;;;;;14.70;13.90;;;13.40;99.90;;;;;;5091586;28;20188;-45
2023/07/06 03:01:08;;;;;;;14.80;13.90;;;13.40;99.90;;;;;;5082255;28;20199;-43
2023/07/06 03:03:34;;;;;;;14.63;13.80;;;13.40;99.90;;;;;;5091269;28;20823;-43
2023/07/06 03:06:01;;;;;;;14.57;13.67;;;13.30;99.90;;;;;;5091362;28;20414;-44
2023/07/06 03:08:27;;;;;;;14.63;13.63;;;13.30;99.90;;;;;;5091076;28;20678;-43
2023/07/06 03:10:53;;;;;;;14.83;13.93;;;13.30;99.90;;;;;;5091435;28;20453;-43
2023/07/06 03:13:18;;;;;;;13.93;13.03;;;13.20;99.90;;;;;;5091055;28;20184;-47
2023/07/06 03:15:50;;;;;;;14.40;13.57;;;13.20;99.90;;;;;;5091069;28;20781;-46
2023/07/06 03:18:18;;;;;;;14.07;13.07;;;13.20;1.00;;;;;;5090899;28;20172;-44
2023/07/06 03:20:48;;;;;;;14.53;13.63;;;13.10;99.90;;;;;;5091019;28;20450;-43
2023/07/06 03:23:13;;;;;;;14.47;13.57;;;13.10;1.00;;;;;;5091346;28;20472;-48
2023/07/06 03:25:39;;;;;;;13.97;13.07;;;13.10;1.00;;;;;;5081021;28;20467;-46
2023/07/06 03:28:05;;;;;;;14.03;13.23;;;13.10;98.70;;;;;;5086084;28;20184;-49
2023/07/06 03:30:30;;;;;;;14.53;13.63;;;13.00;99.90;;;;;;5090832;28;20264;-49
2023/07/06 03:32:58;;;;;;;14.80;13.73;;;13.00;99.90;;;;;;5090873;28;20639;-49
2023/07/06 03:35:25;;;;;;;14.10;13.27;;;13.00;99.90;;;;;;5090847;28;20183;-45
2023/07/06 03:37:53;;;;;;;14.60;13.70;;;13.00;1.00;;;;;;5090553;28;20422;-47
2023/07/06 03:40:20;;;;;;;14.53;13.63;;;13.00;99.90;;;;;;5090877;28;20458;-46
2023/07/06 03:42:46;;;;;;;13.93;13.07;;;13.00;99.90;;;;;;5090466;28;20846;-51
2023/07/06 03:45:14;;;;;;;14.03;13.20;;;13.00;99.90;;;;;;5090596;28;20497;-48
2023/07/06 03:47:45;;;;;;;14.27;13.40;;;13.00;99.90;;;;;;5076323;28;20422;-49
2023/07/06 03:50:14;;;;;;;14.20;13.40;;;13.00;99.90;;;;;;5090673;28;20879;-52
2023/07/06 03:52:40;;;;;;;14.80;13.97;;;13.00;99.90;;;;;;5089537;28;20418;-44
2023/07/06 03:55:12;;;;;;;14.30;13.50;;;13.00;1.00;;;;;;5081485;28;20426;-49
2023/07/06 03:57:38;;;;;;;13.90;13.10;;;13.00;1.00;;;;;;5090041;28;20459;-48
2023/07/06 04:00:13;;;;;;;14.60;13.50;;;13.00;1.00;;;;;;5082394;28;20420;-49
2023/07/06 04:02:39;;;;;;;14.23;13.30;;;13.10;13.10;;;;;;5075124;28;20498;-49
2023/07/06 04:05:04;;;;;;;14.20;13.40;;;13.00;1.00;;;;;;5090179;28;20422;-50
2023/07/06 04:07:30;;;;;;;13.90;13.00;;;13.00;1.00;;;;;;5090181;28;20180;-50
2023/07/06 04:09:56;;;;;;;15.47;14.37;;;13.00;1.00;;;;;;5090105;28;20701;-48
2023/07/06 04:12:22;;;;;;;14.47;13.47;;;13.00;1.00;;;;;;5090437;28;20406;-50
2023/07/06 04:14:47;;;;;;;14.47;13.57;;;13.00;99.90;;;;;;5090099;28;20674;-52
2023/07/06 04:17:14;;;;;;;14.60;13.50;;;13.10;99.90;;;;;;5088300;28;20227;-48
2023/07/06 04:19:40;;;;;;;14.57;13.63;;;13.10;99.90;;;;;;5090018;28;20188;-49
2023/07/06 04:22:06;;;;;;;13.63;12.90;;;13.10;1.00;;;;;;5089698;28;20524;-47
2023/07/06 04:24:31;;;;;;;14.60;13.70;;;13.20;99.90;;;;;;5089726;28;20298;-48
2023/07/06 04:26:59;;;;;;;14.53;13.60;;;13.20;1.00;;;;;;5089642;28;20176;-50
2023/07/06 04:29:26;;;;;;;15.07;13.77;;;13.30;1.00;;;;;;5089780;28;20525;-47
2023/07/06 04:31:55;;;;;;;13.53;12.63;;;13.30;11.80;;;;;;5089922;28;20411;-47
2023/07/06 04:34:21;;;;;;;13.13;12.33;;;13.30;1.00;;;;;;5089375;28;20421;-49
2023/07/06 04:36:47;;;;;;;14.00;13.10;;;13.30;1.00;;;;;;5089702;28;20453;-49
2023/07/06 04:39:12;;;;;;;14.60;13.60;;;13.30;99.90;;;;;;5089531;28;20442;-46
2023/07/06 04:41:38;;;;;;;13.73;12.93;;;13.30;41.00;;;;;;5089380;28;20277;-48
2023/07/06 04:44:04;;;;;;;14.20;13.40;;;13.50;1.00;;;;;;5089424;28;20741;-48
2023/07/06 04:46:30;;;;;;;14.13;13.13;;;13.40;1.00;;;;;;5082499;28;20746;-52
2023/07/06 04:48:55;;;;;;;13.17;12.37;;;13.50;1.00;;;;;;5082829;28;20261;-48
2023/07/06 04:51:21;;;;;;;14.07;13.17;;;13.40;1.00;;;;;;5089374;28;20574;-50
2023/07/06 04:53:48;;;;;;;13.80;12.90;;;13.50;1.00;;;;;;5079676;28;20180;-47
2023/07/06 04:56:16;;;;;;;13.73;12.87;;;13.50;99.90;;;;;;5089202;28;20184;-51
2023/07/06 04:58:44;;;;;;;15.90;14.90;;;13.60;1.00;;;;;;5088227;28;20757;-48
2023/07/06 05:01:10;;;;;;;14.90;13.80;;;13.60;1.00;;;;;;5079810;28;20446;-48
2023/07/06 05:03:36;;;;;;;13.57;12.77;;;13.60;1.00;;;;;;5088817;28;20915;-50
2023/07/06 05:06:08;;;;;;;14.60;13.60;;;13.70;99.90;;;;;;5088985;28;20251;-49
2023/07/06 05:08:34;;;;;;;13.83;12.90;;;13.70;99.90;;;;;;5088933;28;20177;-48
2023/07/06 05:11:03;;;;;;;14.43;13.33;;;13.70;58.40;;;;;;5089412;28;20992;-48
2023/07/06 05:13:29;;;;;;;14.40;13.30;;;13.80;25.60;;;;;;5089117;28;20471;-50
2023/07/06 05:15:55;;;;;;;13.67;12.77;;;13.80;1.00;;;;;;5089219;28;20549;-49
2023/07/06 05:18:21;;;;;;;13.90;12.97;;;13.90;1.00;;;;;;5088606;28;20422;-51
2023/07/06 05:20:51;;;;;;;13.83;12.80;;;14.00;1.00;;;;;;5088773;28;20536;-48
2023/07/06 05:23:18;;;;;;;13.63;12.83;;;14.20;99.90;;;;;;5088650;28;20995;-51
2023/07/06 05:25:44;;;;;;;13.83;13.03;;;14.30;99.90;;;;;;5088601;28;20469;-48
2023/07/06 05:28:12;;;;;;;12.70;12.00;;;14.40;28.40;;;;;;5088758;28;21082;-50
2023/07/06 05:30:42;;;;;;;13.47;12.67;;;14.50;1.00;;;;;;5088823;28;20238;-49
2023/07/06 05:33:07;;;;;;;13.67;12.77;;;14.60;1.00;;;;;;5088822;28;20457;-47
2023/07/06 05:35:33;;;;;;;13.93;13.03;;;14.80;1.00;;;;;;5088609;28;20446;-43
2023/07/06 05:38:00;;;;;;;14.80;13.80;;;14.80;99.90;;;;;;5088832;28;20190;-52
2023/07/06 05:40:26;;;;;;;13.60;12.80;;;14.90;99.90;;;;;;5088853;28;20203;-49
2023/07/06 05:42:54;;;;;;;13.77;12.67;;;15.00;99.90;;;;;;5088634;28;20765;-46
2023/07/06 05:45:21;;;;;;;13.43;12.53;;;15.20;99.90;;;;;;5088679;28;20435;-47
2023/07/06 05:47:47;;;;;;;13.23;12.47;;;15.30;99.90;;;;;;5075189;28;21055;-47
2023/07/06 05:50:13;;;;;;;13.37;12.40;;;15.40;99.90;;;;;;5088524;28;20982;-50
2023/07/06 05:52:42;;;;;;;13.30;12.50;;;15.50;70.40;;;;;;5088085;28;20407;-51
2023/07/06 05:55:08;;;;;;;12.60;11.90;;;15.60;45.20;;;;;;5079953;28;20414;-49
2023/07/06 05:57:34;;;;;;;13.63;12.83;;;15.70;43.40;;;;;;5088566;28;20419;-46
2023/07/06 06:00:01;;;;;;;14.07;13.07;;;15.80;1.00;;;;;;5081371;28;20818;-49
2023/07/06 06:02:28;;;;;;;13.90;13.10;;;15.90;1.00;;;;;;5087003;28;20466;-47
2023/07/06 06:04:54;;;;;;;13.63;12.93;;;16.10;1.00;;;;;;5087113;28;20451;-49
2023/07/06 06:07:20;;;;;;;13.20;12.50;;;16.10;1.00;;;;;;5088493;28;20891;-49
2023/07/06 06:09:50;;;;;;;13.57;12.77;;;16.30;1.00;;;;;;5090059;28;20208;-47
2023/07/06 06:12:18;;;;;;;13.17;12.40;;;16.40;1.00;;;;;;5092655;28;20418;-51
2023/07/06 06:14:48;;;;;;;13.50;12.70;;;16.50;1.00;;;;;;5092428;28;20418;-46
2023/07/06 06:17:16;;;;;;;14.37;13.47;;;16.60;1.00;;;;;;5091057;28;20418;-48
2023/07/06 06:19:42;;;;;;;13.70;12.80;;;16.70;1.00;;;;;;5092187;28;20406;-50
2023/07/06 06:22:11;;;;;;;13.07;12.37;;;16.80;1.00;;;;;;5092334;28;20528;-49
2023/07/06 06:24:37;;;;;;;13.13;12.43;;;16.90;1.00;;;;;;5091925;28;20900;-47
2023/07/06 06:27:04;;;;;;;12.90;12.20;;;17.00;1.00;;;;;;5092252;28;20450;-51
2023/07/06 06:29:32;;;;;;;13.03;12.33;;;17.10;1.00;;;;;;5092238;28;20924;-50
2023/07/06 06:31:59;;;;;;;13.20;12.50;;;17.30;1.00;;;;;;5091967;28;20498;-48
2023/07/06 06:34:25;;;;;;;13.23;12.53;;;17.40;1.00;;;;;;5091859;28;20943;-47
2023/07/06 06:36:50;;;;;;;13.83;12.60;;;17.50;1.00;;;;;;5091976;28;20421;-49
2023/07/06 06:39:16;;;;;;;12.50;11.87;;;17.50;1.00;;;;;;5091698;28;20449;-43
2023/07/06 06:41:43;;;;;;;13.20;12.40;;;17.60;1.00;;;;;;5091811;28;20200;-49
2023/07/06 06:44:11;;;;;;;12.80;12.10;;;17.70;1.00;;;;;;5091788;28;20207;-45
2023/07/06 06:46:37;;;;;;;12.77;12.07;;;17.80;1.00;;;;;;5083688;28;20447;-46
2023/07/06 06:49:02;;;;;;;13.00;12.00;;;17.90;1.00;;;;;;5086382;28;20453;-51
2023/07/06 06:51:28;;;;;;;12.90;12.20;;;17.90;1.00;;;;;;5091988;28;20234;-46
2023/07/06 06:53:53;;;;;;;12.17;11.17;;;18.00;99.90;;;;;;5082458;28;20181;-42
2023/07/06 06:56:22;;;;;;;12.30;11.67;;;18.10;99.90;;;;;;5091710;28;20261;-42
2023/07/06 06:58:48;;;;;;;12.30;11.70;;;18.20;99.90;;;;;;5091790;28;20187;-44
2023/07/06 07:01:14;;;;;;;13.03;12.30;;;18.30;99.90;;;;;;5082270;28;20804;-45
2023/07/06 07:03:39;;;;;;;13.10;12.07;;;18.40;99.90;;;;;;5091212;28;20180;-45
2023/07/06 07:06:12;;;;;;;12.70;11.90;;;18.50;99.90;;;;;;5091261;28;20183;-44
2023/07/06 07:08:43;;;;;;;11.27;10.77;;;18.50;99.90;;;;;;5091272;28;20177;-43
2023/07/06 07:11:10;;;;;;;11.23;10.60;;;18.70;99.90;;;;;;5091045;28;20430;-49
2023/07/06 07:13:37;;;;;;;11.70;11.10;;;19.00;99.90;;;;;;5091384;28;20418;-45
2023/07/06 07:16:04;;;;;;;11.90;11.30;;;19.10;99.90;;;;;;5091203;28;20433;-43
2023/07/06 07:18:30;;;;;;;13.53;12.33;;;19.20;99.90;;;;;;5091647;28;20415;-46
2023/07/06 07:20:56;;;;;;;12.53;11.73;;;19.30;99.90;;;;;;5090052;28;20553;-46
2023/07/06 07:23:23;;;;;;;12.20;11.60;;;19.30;99.90;;;;;;5091107;28;20517;-45
2023/07/06 07:25:49;;;;;;;11.40;10.90;;;19.40;99.90;;;;;;5090768;28;20220;-44
2023/07/06 07:28:16;;;;;;;13.33;12.33;;;19.40;99.90;;;;;;5090479;28;20418;-47
2023/07/06 07:30:45;;;;;;;12.00;11.40;;;19.50;99.90;;;;;;5090883;28;20565;-47
2023/07/06 07:33:11;;;;;;;12.53;11.93;;;19.60;99.90;;;;;;5089515;28;20449;-47
2023/07/06 07:35:41;;;;;;;12.20;11.50;;;19.70;99.90;;;;;;5090741;28;20909;-45
2023/07/06 07:38:07;;;;;;;11.83;11.23;;;19.80;99.90;;;;;;5090554;28;20184;-46
2023/07/06 07:40:32;;;;;;;12.80;11.83;;;19.90;99.90;;;;;;5091093;28;20456;-43
2023/07/06 07:42:59;;;;;;;12.00;11.30;;;19.90;99.90;;;;;;5090682;28;20177;-47
2023/07/06 07:45:25;;;;;;;11.73;11.13;;;20.00;99.90;;;;;;5091213;28;20548;-46
2023/07/06 07:47:50;;;;;;;11.83;11.03;;;20.10;99.90;;;;;;5077251;28;20427;-46
2023/07/06 07:50:17;;;;;;;12.10;11.50;;;20.20;99.90;;;;;;5090726;28;20623;-43
2023/07/06 07:52:43;;;;;;;12.63;12.03;;;20.20;99.90;;;;;;5075515;28;20180;-43
2023/07/06 07:55:10;;;;;;;12.40;11.83;;;20.30;99.90;;;;;;5081411;28;20426;-42
2023/07/06 07:57:37;;;;;;;11.73;11.13;;;20.50;99.90;;;;;;5086005;28;20188;-47
2023/07/06 08:00:06;;;;;;;12.97;12.27;;;20.60;99.90;;;;;;5073606;28;20408;-49
2023/07/06 08:02:32;;;;;;;11.80;11.30;;;20.70;99.90;;;;;;5088006;28;21017;-44
2023/07/06 08:05:01;;;;;;;12.13;11.43;;;20.80;99.90;;;;;;5090379;28;20449;-47
2023/07/06 08:07:27;;;;;;;12.37;11.77;;;20.80;99.90;;;;;;5090089;28;20418;-49
2023/07/06 08:09:52;;;;;;;11.53;10.93;;;20.90;99.90;;;;;;5090188;28;20418;-47
2023/07/06 08:12:20;;;;;;;10.60;10.00;;;21.00;99.90;;;;;;5090594;28;20852;-46
2023/07/06 08:14:46;;;;;;;11.27;10.80;;;21.20;99.90;;;;;;5089158;28;20184;-43
2023/07/06 08:17:12;;;;;;;11.23;10.63;;;21.30;99.90;;;;;;5089965;28;20422;-45
2023/07/06 08:19:38;;;;;;;11.77;11.20;;;21.30;99.90;;;;;;5089874;28;20195;-44
2023/07/06 08:22:04;;;;;;;12.07;11.47;;;21.50;99.90;;;;;;5089966;28;20454;-43
2023/07/06 08:24:29;;;;;;;12.07;11.43;;;21.60;99.90;;;;;;5088593;28;20237;-45
2023/07/06 08:26:56;;;;;;;11.50;11.00;;;21.60;99.90;;;;;;5089665;28;20458;-47
2023/07/06 08:29:22;;;;;;;11.63;11.07;;;21.30;99.90;;;;;;5089795;28;20240;-44
2023/07/06 08:31:49;;;;;;;11.63;11.10;;;21.40;99.90;;;;;;5089793;28;20415;-45
2023/07/06 08:34:16;;;;;;;11.07;10.57;;;21.50;99.90;;;;;;5089144;28;20448;-48
2023/07/06 08:36:43;;;;;;;10.57;10.17;;;21.70;99.90;;;;;;5089505;28;20418;-43
2023/07/06 08:39:09;;;;;;;11.50;11.00;;;21.90;99.90;;;;;;5089349;28;20780;-44
2023/07/06 08:41:39;;;;;;;12.20;11.50;;;22.10;99.90;;;;;;5089392;28;20457;-49
2023/07/06 08:44:08;;;;;;;11.83;11.33;;;22.30;99.90;;;;;;5089796;28;20767;-46
2023/07/06 08:46:40;;;;;;;10.83;10.33;;;22.40;99.90;;;;;;5081980;28;20423;-44
2023/07/06 08:49:27;;;;;;;11.63;11.13;;;22.60;99.90;;;;;;5084674;28;20411;-44
2023/07/06 08:51:53;;;;;;;11.27;10.57;;;22.70;99.90;;;;;;5089798;28;20988;-45
2023/07/06 08:54:21;;;;;;;11.60;11.00;;;22.90;99.90;;;;;;5079951;28;20732;-47
2023/07/06 08:56:48;;;;;;;11.67;11.17;;;23.00;99.90;;;;;;5089645;28;20418;-45
2023/07/06 08:59:45;;;;;;;11.20;10.60;;;23.30;99.90;;;;;;5083512;28;20471;-47
2023/07/06 09:02:28;;;;;;;11.17;10.67;;;23.30;99.90;;;;;;5057215;28;20483;-45
2023/07/06 09:04:56;;;;;;;11.23;10.73;;;23.50;99.90;;;;;;5089133;28;20513;-46
2023/07/06 09:07:31;;;;;;;12.20;11.60;;;23.60;99.90;;;;;;5088798;28;20422;-45
2023/07/06 09:09:58;;;;;;;11.43;10.93;;;23.40;99.90;;;;;;5087627;28;20442;-44
2023/07/06 09:12:31;;;;;;;10.90;10.50;;;23.40;99.90;;;;;;5089016;28;20422;-46
2023/07/06 09:14:59;;;;;;;11.60;11.10;;;23.60;99.90;;;;;;5089174;28;20415;-44
2023/07/06 09:17:25;;;;;;;10.50;10.10;;;24.10;99.90;;;;;;5089314;28;20863;-46
2023/07/06 09:19:54;;;;;;;12.33;11.73;;;24.20;99.90;;;;;;5089171;28;20422;-45
2023/07/06 09:22:23;;;;;;;11.13;10.63;;;24.50;99.90;;;;;;5089116;28;20458;-47
2023/07/06 09:24:50;;;;;;;11.87;11.27;;;24.70;99.90;;;;;;5088447;28;20552;-46
2023/07/06 09:27:21;;;;;;;11.10;10.60;;;25.10;99.90;;;;;;5088791;28;20422;-50
2023/07/06 09:29:57;;;;;;;11.73;11.13;;;25.50;99.90;;;;;;5088702;28;20417;-50
2023/07/06 09:32:23;;;;;;;10.40;9.90;;;26.00;99.90;;;;;;5088717;28;20420;-43
2023/07/06 09:34:55;;;;;;;11.67;11.07;;;25.90;99.90;;;;;;5088740;28;20846;-45
2023/07/06 09:37:22;;;;;;;11.27;10.60;;;25.80;99.90;;;;;;5088747;28;20184;-52
2023/07/06 09:40:05;;;;;;;11.43;10.93;;;25.90;99.90;;;;;;5089047;28;20830;-50
2023/07/06 09:42:32;;;;;;;11.60;11.00;;;26.40;99.90;;;;;;5088529;28;20462;-51
2023/07/06 09:44:59;;;;;;;11.00;10.50;;;26.00;99.90;;;;;;5088138;28;20413;-50
2023/07/06 09:47:24;;;;;;;10.90;10.40;;;25.90;99.90;;;;;;5075035;28;20411;-47
2023/07/06 09:49:55;;;;;;;11.40;10.70;;;26.30;99.90;;;;;;5088609;28;20418;-48
2023/07/06 09:52:22;;;;;;;11.40;10.90;;;26.60;99.90;;;;;;5088721;28;20241;-51
2023/07/06 09:54:51;;;;;;;11.43;10.83;;;27.10;99.90;;;;;;5079003;28;20525;-51
2023/07/06 09:57:17;;;;;;;11.07;10.57;;;26.20;99.90;;;;;;5088348;28;20520;-48
2023/07/06 09:59:48;;;;;;;12.00;11.50;;;26.70;99.90;;;;;;5083577;28;20519;-49
2023/07/06 10:02:35;;;;;;;11.10;10.50;;;26.80;99.90;;;;;;5085479;28;20243;-47
2023/07/06 10:05:38;;;;;;;11.77;11.27;;;27.50;99.90;;;;;;5088612;28;20433;-51
2023/07/06 10:08:11;;;;;;;11.13;10.70;;;28.60;99.90;;;;;;5087038;28;20460;-50
2023/07/06 10:11:06;;;;;;;11.50;11.00;;;29.80;99.90;;;;;;5088446;28;20426;-50
2023/07/06 10:13:41;;;;;;;12.20;11.60;;;30.50;99.90;;;;;;5088461;28;20427;-54
2023/07/06 10:16:38;;;;;;;12.50;11.90;;;29.80;99.90;;;;;;5088347;28;20441;-48
2023/07/06 10:19:39;;;;;;;11.80;11.30;;;29.80;99.90;;;;;;5088281;28;20896;-53
2023/07/06 10:22:39;;;;;;;12.70;12.10;;;28.60;99.90;;;;;;5088284;28;21018;-54
2023/07/06 10:25:18;;;;;;;12.27;11.67;;;28.10;99.90;;;;;;5087863;28;20564;-49
2023/07/06 10:27:49;;;;;;;11.47;10.97;;;27.60;99.90;;;;;;5088122;28;20418;-51
2023/07/06 10:30:33;;;;;;;12.40;11.70;;;27.70;99.90;;;;;;5088307;28;20908;-48
2023/07/06 10:33:06;;;;;;;12.03;11.43;;;28.60;99.90;;;;;;5088012;28;20414;-47
2023/07/06 10:35:38;;;;;;;11.80;11.30;;;29.40;99.90;;;;;;5088137;28;20414;-48
2023/07/06 10:38:06;;;;;;;11.93;11.43;;;30.10;99.90;;;;;;5087942;28;20422;-51
2023/07/06 10:40:32;;;;;;;11.70;11.00;;;30.20;99.90;;;;;;5087819;28;20907;-47
2023/07/06 10:43:20;;;;;;;11.97;11.47;;;30.70;99.90;;;;;;5087885;28;20762;-50
2023/07/06 10:45:56;;;;;;;12.33;11.63;;;31.00;99.90;;;;;;5086890;28;20418;-47
2023/07/06 10:48:24;;;;;;;12.13;11.53;;;29.90;99.90;;;;;;5076864;28;20885;-48
2023/07/06 10:51:05;;;;;;;11.80;11.10;;;29.10;99.90;;;;;;5087971;28;20456;-47
2023/07/06 10:53:49;;;;;;;11.77;11.17;;;28.20;99.90;;;;;;5080550;28;20929;-46
2023/07/06 10:56:22;;;;;;;12.57;11.97;;;27.80;99.90;;;;;;5063386;28;20414;-51
2023/07/06 10:58:59;;;;;;;12.03;11.30;;;27.30;99.90;;;;;;5091341;28;20909;-50
2023/07/06 11:01:34;;;;;;;10.97;10.50;;;26.80;99.90;;;;;;5080614;28;20549;-45
2023/07/06 11:04:02;;;;;;;11.50;11.00;;;26.80;99.90;;;;;;5091593;28;20989;-44
2023/07/06 11:06:40;;;;;;;10.83;10.33;;;26.80;99.90;;;;;;5091216;28;20422;-46
2023/07/06 11:09:07;;;;;;;11.07;10.57;;;27.30;99.90;;;;;;5091181;28;20417;-49
2023/07/06 11:11:49;;;;;;;11.20;10.70;;;27.80;99.90;;;;;;5091111;28;20926;-49
2023/07/06 11:14:31;;;;;;;11.60;11.10;;;28.40;99.90;;;;;;5091292;28;20930;-44
2023/07/06 11:17:19;;;;;;;11.20;10.70;;;29.70;99.90;;;;;;5090988;28;20425;-45
2023/07/06 11:20:16;;;;;;;11.77;11.07;;;29.80;99.90;;;;;;5084347;28;20923;-44
2023/07/06 11:22:44;;;;;;;11.90;11.30;;;30.30;99.90;;;;;;5091163;28;20513;-49
2023/07/06 11:25:13;;;;;;;12.23;11.63;;;31.60;99.90;;;;;;5090284;28;21388;-48
2023/07/06 11:27:44;;;;;;;11.60;11.10;;;32.40;99.90;;;;;;5090766;28;20458;-50
2023/07/06 11:30:15;;;;;;;11.60;11.10;;;31.50;99.90;;;;;;5091245;28;20423;-49
2023/07/06 11:32:59;;;;;;;10.97;10.47;;;31.20;99.90;;;;;;5090879;28;20782;-48
2023/07/06 11:35:37;;;;;;;10.63;10.20;;;31.40;99.90;;;;;;5081588;28;20501;-48
2023/07/06 11:38:20;;;;;;;11.77;11.30;;;32.20;99.90;;;;;;5087408;28;20430;-46
2023/07/06 11:41:12;;;;;;;11.60;11.10;;;32.90;99.90;;;;;;5090753;28;20458;-49
2023/07/06 11:44:03;;;;;;;11.33;10.83;;;32.80;99.90;;;;;;5080980;28;20404;-43
2023/07/06 11:46:43;;;;;;;11.63;11.03;;;33.40;99.90;;;;;;5082204;28;20432;-43
2023/07/06 11:49:25;;;;;;;10.90;10.40;;;33.80;99.90;;;;;;5086153;28;20417;-45
2023/07/06 11:51:51;;;;;;;11.23;10.73;;;34.00;99.90;;;;;;5090753;28;20429;-48
2023/07/06 11:57:44;;;;;;;12.10;11.50;;;34.40;99.90;;;;;;5090448;28;20199;-48
2023/07/06 12:00:17;;;;;;;11.70;11.20;;;34.40;99.90;;;;;;5078598;28;20435;-48
2023/07/06 12:02:53;;;;;;;10.90;10.30;;;33.90;99.90;;;;;;5090143;28;20423;-46
2023/07/06 12:05:25;;;;;;;11.57;11.07;;;33.90;99.90;;;;;;5090444;28;20900;-49
2023/07/06 12:08:14;;;;;;;11.30;10.80;;;33.50;99.90;;;;;;5090441;28;20459;-43
2023/07/06 12:10:41;;;;;;;10.57;10.17;;;34.00;99.90;;;;;;5090569;28;20841;-44
2023/07/06 12:13:26;;;;;;;11.60;11.10;;;34.40;99.90;;;;;;5090503;28;20466;-49
2023/07/06 12:16:25;;;;;;;11.87;11.37;;;33.90;99.90;;;;;;5090181;28;20476;-49
2023/07/06 12:19:03;;;;;;;10.87;10.47;;;33.80;99.90;;;;;;5066795;28;20437;-49
2023/07/06 12:21:32;;;;;;;11.73;11.20;;;34.10;99.90;;;;;;5089871;28;20456;-43
2023/07/06 12:24:02;;;;;;;11.30;10.83;;;34.00;99.90;;;;;;5089909;28;20983;-49
2023/07/06 12:26:29;;;;;;;11.90;11.40;;;34.30;99.90;;;;;;5089836;28;20406;-51
2023/07/06 12:28:58;;;;;;;11.17;10.67;;;34.80;99.90;;;;;;5089610;28;20793;-49
2023/07/06 12:31:26;;;;;;;11.70;11.20;;;35.50;99.90;;;;;;5089860;28;20958;-50
2023/07/06 12:33:56;;;;;;;11.47;11.00;;;36.00;99.90;;;;;;5089668;28;20426;-52
2023/07/06 12:36:26;;;;;;;11.37;10.97;;;36.20;99.90;;;;;;5089546;28;20793;-47
2023/07/06 12:38:55;;;;;;;10.20;9.77;;;36.20;99.90;;;;;;5089528;28;20427;-48
2023/07/06 12:41:21;;;;;;;11.53;11.03;;;35.70;99.90;;;;;;5089516;28;20462;-46
2023/07/06 12:43:49;;;;;;;11.70;11.20;;;35.50;99.90;;;;;;5089326;28;20944;-45
2023/07/06 12:46:21;;;;;;;11.10;10.40;;;34.70;99.90;;;;;;5083082;28;20177;-47
2023/07/06 12:48:52;;;;;;;11.60;11.20;;;35.20;99.90;;;;;;5081840;28;20517;-46